Weather observations for the past three days for
Astoria, Astoria Regional Airport
Metric (Imperial)
Date Time (pdt) Wind (kph) Vis. (km) Weather Sky Cond. Temperature (ºC) Relative Humidity Wind Chill (°C) Heat Index (°C) Pressure Precipitation (cm)
Air Dwpt 6 hour altimeter (cm) sea level (mb) 1 hr 3 hr 6 hr
Max. Min.
10 08:55 W 9 16.09 Partly Cloudy SCT014 12.8 10.6 87% 76.48 1019.5
10 07:55 S 7 16.09 Fair CLR 11.1 10 93% 76.43 1018.8
10 06:55 Calm 16.09 A Few Clouds FEW015 10.6 9.4 92% 76.38 1018.3
10 05:55 Calm 16.09 A Few Clouds FEW015 10.6 8.9 89% 76.4 1018.5
10 04:55 Calm 16.09 Mostly Cloudy BKN020 11.1 9.4 12.2 10 89% 76.38 1018.1
10 03:55 SW 7 16.09 Mostly Cloudy BKN019 10.6 8.9 89% 76.4 1018.6
10 02:55 W 7 16.09 Mostly Cloudy BKN018 10.6 8.9 89% 76.4 1018.5
10 01:55 W 6 16.09 Mostly Cloudy BKN016 10.6 9.4 92% 76.38 1018.0
10 00:55 NW 17 16.09 Fair CLR 11.7 10 89% 76.38 1018.1
09 23:55 NW 20 16.09 Fair CLR 12.2 10 87% 76.35 1017.7
09 22:55 NW 17 16.09 A Few Clouds FEW012 12.2 10 18.9 12.2 87% 76.33 1017.5
09 21:55 NW 19 16.09 Fair CLR 12.8 10 83% 76.33 1017.4
09 20:55 W 20 G 31 16.09 Fair CLR 13.3 10.6 84% 76.25 1016.7
09 19:55 W 7 16.09 Fair CLR 14.4 11.7 84% 76.2 1016.0
09 18:55 W 15 16.09 Fair CLR 15.6 11.7 78% 76.23 1016.1
09 17:55 W 20 16.09 Fair CLR 18.3 12.2 68% 76.25 1016.6
09 16:55 NW 19 16.09 Fair CLR 18.3 11.7 21.1 14.4 66% 76.25 1016.7
09 15:55 NW 17 16.09 Fair CLR 21.1 13.3 61% 76.33 1017.6
09 14:55 NW 19 16.09 Fair CLR 19.4 12.8 66% 76.38 1018.1
09 13:55 N 15 16.09 Fair CLR 18.3 11.1 63% 76.43 1018.8
09 12:55 NW 13 16.09 Fair CLR 17.2 11.1 68% 76.48 1019.6
09 11:55 N 13 16.09 Fair CLR 16.7 10.6 67% 76.5 1019.9
09 10:55 N 13 16.09 Fair CLR 14.4 9.4 14.4 7.8 72% 76.53 1020.3
09 09:55 N 7 16.09 Fair CLR 13.3 9.4 77% 76.53 1020.3
09 08:55 NE 9 16.09 Fair CLR 12.8 10 83% 76.53 1020.4
09 07:55 SE 6 16.09 Fair CLR 11.1 9.4 89% 76.58 1021.0
09 06:55 E 6 2.01 Fog/Mist BKN002 10 8.9 93% 76.61 1021.1
09 05:55 SE 7 14.48 Mostly Cloudy BKN005 7.8 7.2 96% 7 76.61 1021.2
09 04:55 Calm 16.09 Fair CLR 8.3 7.2 12.2 8.3 93% 76.63 1021.6
09 03:55 SE 6 16.09 Fair CLR 8.9 7.8 93% 76.66 1021.9
09 02:55 Calm 16.09 Partly Cloudy SCT030 11.1 9.4 89% 76.66 1022.1
09 01:55 Calm 16.09 Overcast OVC031 12.2 10 87% 76.68 1022.3
09 00:55 Calm 16.09 Overcast OVC032 12.2 10 87% 76.71 1022.6
08 23:55 Calm 16.09 Overcast OVC032 11.7 10 89% 76.71 1022.7
08 22:55 SE 6 16.09 Overcast OVC032 11.7 10 13.9 10.6 89% 76.71 1022.7
08 21:55 Calm 16.09 A Few Clouds FEW028 11.1 9.4 89% 76.71 1022.7
08 20:55 Calm 16.09 Overcast SCT030 OVC039 12.2 10 87% 76.71 1022.5
08 19:55 SW 6 16.09 Overcast OVC031 12.8 10 83% 76.71 1022.5
08 18:55 SW 15 16.09 Overcast OVC034 13.3 9.4 77% 76.71 1022.6
08 17:55 SW 19 16.09 Overcast OVC036 13.3 8.9 75% 76.71 1022.5
08 16:55 SW 17 G 30 16.09 Overcast OVC038 13.9 8.9 15 12.8 72% 76.71 1022.7
08 15:55 SW 26 G 39 16.09 Overcast OVC044 14.4 8.9 70% 76.71 1022.8
08 14:55 SW 20 G 43 16.09 Overcast OVC042 14.4 8.9 70% 76.71 1022.6
08 13:55 S 22 G 43 16.09 Overcast OVC039 14.4 7.8 65% 76.68 1022.2
08 12:55 SW 19 G 41 16.09 Overcast OVC039 14.4 7.8 65% 76.66 1021.9
08 11:55 SW 20 G 35 16.09 Overcast FEW030 OVC037 13.3 7.2 67% 76.63 1021.5
08 10:55 SW 19 G 30 16.09 Overcast FEW026 OVC039 12.8 6.7 12.8 10 67% 76.63 1021.6
08 09:55 SW 19 16.09 Overcast FEW029 OVC038 12.2 6.7 69% 76.61 1021.1
08 08:55 S 9 16.09 Overcast BKN028 OVC033 11.7 6.7 72% 76.56 1020.6
08 07:55 SE 9 16.09 Overcast OVC030 11.1 6.7 75% 76.5 1019.8
08 06:55 S 7 16.09 Overcast OVC033 11.1 5.6 69% 76.45 1019.3
08 05:55 SW 9 16.09 Overcast OVC027 10.6 6.1 74% 76.48 1019.5
08 04:55 SW 6 16.09 Overcast OVC028 10 6.1 10 7.2 77% 76.45 1019.3
08 03:55 Calm 16.09 Overcast OVC025 8.9 6.7 86% 76.43 1018.9
08 02:55 S 6 16.09 Overcast OVC022 7.8 6.1 89% 76.4 1018.4
08 01:55 SE 6 16.09 Mostly Cloudy BKN020 7.2 6.1 93% 76.38 1018.1
08 00:55 SE 6 16.09 A Few Clouds FEW020 7.8 6.1 89% 76.35 1017.9
07 23:55 S 6 16.09 Fair CLR 8.3 6.1 86% 76.35 1017.8
07 22:55 Calm 16.09 Fair CLR 8.9 6.1 14.4 8.9 83% 76.35 1017.9
07 21:55 SW 6 16.09 Fair CLR 8.9 6.1 83% 76.35 1018.0
07 20:55 W 6 16.09 Fair CLR 10 6.1 77% 76.35 1018.0
07 19:55 W 11 16.09 Fair CLR 10.6 6.1 74% 76.35 1017.8
07 18:55 W 15 16.09 Fair CLR 12.8 6.1 64% 76.35 1018.0
07 17:55 NW 17 16.09 Fair CLR 13.3 6.1 62% 76.38 1018.4
07 16:55 NW 20 16.09 Fair CLR 14.4 6.7 15 12.8 60% 76.4 1018.6
07 15:55 NW 17 16.09 Fair CLR 14.4 6.7 60% 76.45 1019.2
07 14:55 W 17 16.09 Fair CLR 14.4 6.7 60% 76.48 1019.7
07 13:55 N 17 16.09 Fair CLR 14.4 6.7 60% 76.48 1019.6
07 12:55 Vrbl 11 16.09 Fair CLR 13.9 6.1 60% 76.53 1020.2
07 11:55 N 11 16.09 Fair CLR 13.9 5 55% 76.56 1020.6
07 10:55 W 7 16.09 Partly Cloudy SCT030 12.8 4.4 12.8 10 57% 76.58 1020.9
Date Time (pdt) Wind (kph) Vis. (km) Weather Sky Cond. Air Dwpt Max. Min. Relative Humidity Wind Chill (°C) Heat Index (°C) altimeter (cm) sea level (mb) 1 hr 3 hr 6 hr
6 hour
Temperature (ºC) Pressure Precipitation (cm)